Time;durP1;ratioP1;P1;durP2;ratioP2;P2;SDS_P1;SDS_P2;PMS_P1;PMS_P2;Temp;Humidity;BMP_temperature;BMP_pressure;BME280_temperature;BME280_humidity;BME280_pressure;Samples;Min_cycle;Max_cycle;Signal;HPM_P1;HPM_P2
2022/01/28 00:04:48;;;;;;;1.70;1.00;;;;;;;1.56;91.15;97701.50;1633448;86;21073;-75
2022/01/28 00:07:14;;;;;;;;;;;;;;;1.57;91.24;97695.92;1634562;87;20986;-74
2022/01/28 00:09:41;;;;;;;1.63;0.63;;;;;;;1.63;91.54;97696.94;1605247;87;20187;-74
2022/01/28 00:12:09;;;;;;;1.50;0.70;;;;;;;1.63;91.54;97696.94;1635742;86;20966;-74
2022/01/28 00:38:44;;;;;;;5.92;1.17;;;;;;;2.60;93.15;97710.57;1717145;82;21076;-74
2022/01/28 00:41:07;;;;;;;5.10;1.32;;;;;;;2.65;93.55;97706.04;1724528;81;20910;-74
2022/01/28 00:43:33;;;;;;;4.90;1.00;;;;;;;2.66;94.41;97711.56;1733175;81;21045;-74
2022/01/28 00:46:00;;;;;;;4.92;1.35;;;;;;;2.70;94.34;97715.68;1729599;81;20974;-74
2022/01/28 00:48:26;;;;;;;5.70;1.27;;;;;;;2.78;93.98;97713.58;1718748;82;20906;-74
2022/01/28 00:50:53;;;;;;;4.03;1.22;;;;;;;2.78;93.48;97721.31;1719590;82;20900;-74
2022/01/28 00:53:19;;;;;;;7.05;2.02;;;;;;;2.78;93.48;97725.17;1722975;81;20911;-74
2022/01/28 00:55:46;;;;;;;10.90;1.25;;;;;;;2.79;94.34;97734.56;1713436;82;21044;-74
2022/01/28 00:58:13;;;;;;;7.43;1.50;;;;;;;2.79;95.48;97734.56;1721187;82;20957;-74
2022/01/28 01:00:40;;;;;;;7.63;1.43;;;;;;;2.77;94.84;97732.97;1706467;83;20950;-74
2022/01/28 01:03:08;;;;;;;7.15;1.60;;;;;;;2.83;94.91;97741.27;1726056;82;20919;-74
2022/01/28 01:05:34;;;;;;;8.00;1.85;;;;;;;2.84;94.35;97744.20;1729455;81;26557;-74
2022/01/28 01:08:03;;;;;;;6.23;1.67;;;;;;;2.84;94.35;97744.20;1737424;81;21877;-74
2022/01/28 01:10:30;;;;;;;7.12;1.85;;;;;;;2.87;94.49;97754.83;1737019;81;21511;-74
2022/01/28 01:12:57;;;;;;;7.00;1.37;;;;;;;2.87;95.01;97756.95;1717907;82;21468;-74
2022/01/28 01:15:29;;;;;;;6.72;1.52;;;;;;;2.87;94.84;97762.56;1719467;82;21423;-74
2022/01/28 01:23:07;;;;;;;5.67;0.90;;;;;;;2.84;94.64;97779.00;1729766;82;20922;-74
2022/01/28 01:25:27;;;;;;;6.15;1.80;;;;;;;2.83;95.07;97792.81;1712189;81;20982;-74
2022/01/28 01:27:53;;;;;;;5.05;1.55;;;;;;;2.81;95.11;97795.08;1730146;81;21642;-74
2022/01/28 01:30:18;;;;;;;6.40;1.60;;;;;;;2.81;95.27;97788.17;1688939;83;20963;-73
2022/01/28 01:32:45;;;;;;;8.58;1.30;;;;;;;2.78;95.52;97797.34;1758867;80;21064;-74
2022/01/28 01:35:12;;;;;;;4.80;1.37;;;;;;;2.78;95.73;97797.34;1751004;80;20943;-73
2022/01/28 01:37:38;;;;;;;4.28;1.27;;;;;;;2.76;96.02;97804.30;1749281;80;20904;-73
2022/01/28 01:40:06;;;;;;;5.72;2.20;;;;;;;2.74;95.85;97806.10;1754174;80;20952;-73
2022/01/28 01:42:45;;;;;;;8.05;1.20;;;;;;;2.72;95.65;97811.80;1754330;80;20976;-73
2022/01/28 01:45:47;;;;;;;10.00;1.70;;;;;;;2.70;95.64;97817.47;1746671;80;21044;-73
2022/01/28 01:53:14;;;;;;;3.98;1.07;;;;;;;2.64;95.71;97834.05;1755521;80;20894;-72
2022/01/28 01:55:42;;;;;;;3.05;1.12;;;;;;;2.64;95.94;97826.78;1752407;80;20940;-72
2022/01/28 01:58:08;;;;;;;3.75;1.12;;;;;;;2.58;96.23;97828.34;1755846;80;21082;-72
2022/01/28 02:00:35;;;;;;;3.27;0.98;;;;;;;2.56;95.94;97852.05;1755736;80;20896;-72
2022/01/28 02:03:01;;;;;;;3.43;1.33;;;;;;;2.53;96.20;97845.75;1758165;80;20917;-72
2022/01/28 02:05:28;;;;;;;3.50;0.90;;;;;;;2.51;96.27;97852.70;1754394;80;20852;-72
2022/01/28 02:07:55;;;;;;;5.15;1.15;;;;;;;2.49;96.27;97858.36;1752583;80;20927;-72
2022/01/28 02:10:21;;;;;;;3.83;0.70;;;;;;;2.45;96.33;97854.64;1752844;80;21145;-72
2022/01/28 02:12:51;;;;;;;4.20;0.70;;;;;;;2.40;96.55;97864.30;1750253;80;21250;-72
2022/01/28 02:15:19;;;;;;;1.55;0.60;;;;;;;2.35;96.43;97858.54;1750964;80;20954;-73
2022/01/28 02:17:45;;;;;;;3.45;0.75;;;;;;;2.32;95.96;97867.66;1754859;80;20934;-73
2022/01/28 02:20:26;;;;;;;2.63;0.80;;;;;;;2.28;96.12;97870.00;1750021;80;21027;-73
2022/01/28 02:22:50;;;;;;;3.60;0.70;;;;;;;2.23;96.05;97883.52;1757296;80;21453;-72
2022/01/28 02:25:29;;;;;;;1.85;0.60;;;;;;;2.19;95.95;97885.86;1752101;80;20891;-72
2022/01/28 02:27:58;;;;;;;1.20;0.40;;;;;;;2.14;95.92;97892.94;1755048;80;21037;-73
2022/01/28 02:30:24;;;;;;;1.30;0.40;;;;;;;2.06;95.97;97892.42;1782462;79;20922;-72
2022/01/28 02:32:56;;;;;;;1.27;0.30;;;;;;;2.05;96.15;97912.64;1784429;79;20874;-72
2022/01/28 02:35:19;;;;;;;0.57;0.20;;;;;;;1.99;96.11;97913.73;1759224;79;20995;-73
2022/01/28 02:37:46;;;;;;;0.60;0.20;;;;;;;1.91;96.17;97923.05;1781830;79;20890;-72
2022/01/28 02:40:13;;;;;;;2.10;0.30;;;;;;;1.88;95.80;97933.47;1775083;79;21400;-72
2022/01/28 02:45:21;;;;;;;2.83;0.50;;;;;;;1.55;96.23;97950.63;1781379;79;21013;-71
2022/01/28 02:47:42;;;;;;;0.85;0.30;;;;;;;1.43;96.28;97972.98;1776877;79;21436;-72
2022/01/28 02:50:09;;;;;;;0.72;0.30;;;;;;;1.30;96.12;97971.77;1775171;79;20922;-72
2022/01/28 02:52:43;;;;;;;0.23;0.15;;;;;;;1.22;96.16;97981.49;1772987;79;20941;-72
2022/01/28 02:55:10;;;;;;;0.10;0.10;;;;;;;1.13;96.45;97995.53;1780870;79;21420;-70
2022/01/28 02:57:37;;;;;;;0.75;0.15;;;;;;;1.02;96.77;97988.20;1784509;79;20964;-72
2022/01/28 03:00:05;;;;;;;1.00;0.30;;;;;;;0.97;96.37;98008.09;1775087;79;21156;-73
2022/01/28 03:02:31;;;;;;;0.82;0.28;;;;;;;0.90;96.28;98011.78;1782362;79;20887;-72
2022/01/28 03:07:30;;;;;;;0.62;0.23;;;;;;;0.75;95.87;98034.98;1708472;83;20906;-72
2022/01/28 03:12:35;;;;;;;0.42;0.20;;;;;;;0.63;96.22;98037.53;1738350;81;22026;-71
2022/01/28 03:15:05;;;;;;;0.40;0.20;;;;;;;0.62;96.20;98044.86;1725858;81;20940;-72
2022/01/28 03:22:43;;;;;;;0.28;0.23;;;;;;;0.44;96.45;98073.25;1703070;82;20998;-71
2022/01/28 03:25:10;;;;;;;0.20;0.20;;;;;;;0.38;96.71;98075.19;1724247;81;21114;-72
2022/01/28 03:30:13;;;;;;;0.10;0.10;;;;;;;0.31;97.01;98091.67;1743283;81;21349;-71
2022/01/28 03:32:39;;;;;;;0.30;0.10;;;;;;;0.28;97.13;98108.04;1740175;81;21018;-71
2022/01/28 03:35:06;;;;;;;0.72;0.15;;;;;;;0.23;98.29;98119.34;1741413;81;21353;-71
2022/01/28 03:37:33;;;;;;;0.20;0.20;;;;;;;0.20;97.65;98127.52;1738983;81;21429;-71
2022/01/28 03:40:00;;;;;;;1.50;0.20;;;;;;;0.16;98.13;98134.06;1741202;81;20886;-71
2022/01/28 03:42:27;;;;;;;0.20;0.20;;;;;;;0.12;97.94;98148.73;1742866;81;20930;-70
2022/01/28 03:44:54;;;;;;;0.10;0.10;;;;;;;0.09;98.18;98146.26;1703997;83;20955;-71
2022/01/28 03:47:20;;;;;;;0.20;0.17;;;;;;;0.06;97.97;98143.78;1724228;82;20970;-71
2022/01/28 03:49:47;;;;;;;0.40;0.23;;;;;;;0.05;98.17;98153.64;1725294;81;21042;-71
2022/01/28 03:52:14;;;;;;;0.10;0.10;;;;;;;0.04;98.43;98142.15;1713875;83;21025;-71
2022/01/28 03:54:40;;;;;;;0.80;0.20;;;;;;;0.00;99.40;98179.91;1721335;82;20952;-71
2022/01/28 03:57:07;;;;;;;0.63;0.30;;;;;;;-0.01;98.98;98181.60;1720599;82;21546;-71
2022/01/28 03:59:34;;;;;;;0.10;0.10;;;;;;;-0.04;98.88;98184.70;1735411;81;20956;-71
2022/01/28 04:02:04;;;;;;;0.45;0.20;;;;;;;-0.05;99.14;98202.28;1725148;81;21110;-70
2022/01/28 04:12:40;;;;;;;0.10;0.10;;;;;;;-0.11;100.00;98217.83;1702448;83;22229;-70
2022/01/28 04:17:54;;;;;;;1.45;0.40;;;;;;;-0.12;100.00;98231.55;1662300;84;20973;-70
2022/01/28 04:20:20;;;;;;;0.30;0.20;;;;;;;-0.11;99.61;98235.78;1661103;85;21483;-70
2022/01/28 04:22:48;;;;;;;1.05;0.20;;;;;;;-0.09;99.30;98250.25;1665167;85;20907;-71
2022/01/28 04:25:14;;;;;;;;;;;;;;;-0.06;98.90;98249.33;1672561;85;21551;-70
2022/01/28 04:27:41;;;;;;;0.20;0.20;;;;;;;-0.05;98.91;98265.14;1658706;85;21159;-70
2022/01/28 04:30:08;;;;;;;0.70;0.40;;;;;;;-0.03;98.95;98267.20;1661030;85;20927;-71
2022/01/28 04:32:37;;;;;;;3.30;0.30;;;;;;;-0.01;98.95;98284.69;1671786;85;20927;-70
2022/01/28 04:35:05;;;;;;;0.28;0.20;;;;;;;-0.01;98.95;98289.83;1662649;85;20940;-70
2022/01/28 04:37:42;;;;;;;2.60;0.60;;;;;;;0.00;99.16;98292.81;1673741;85;20982;-70
2022/01/28 04:43:11;;;;;;;1.22;0.50;;;;;;;0.23;98.93;98311.86;1667808;85;20991;-71
2022/01/28 04:45:42;;;;;;;1.85;0.75;;;;;;;0.30;98.82;98314.64;1665702;85;20965;-71
2022/01/28 04:48:13;;;;;;;2.15;1.07;;;;;;;0.28;99.86;98338.22;1662200;82;21003;-71
2022/01/28 05:02:10;;;;;;;0.50;0.40;;;;;;;0.21;100.00;98371.77;1722468;81;21499;-71
2022/01/28 05:27:13;;;;;;;1.35;0.57;;;;;;;0.06;100.00;98469.72;1740155;81;20932;-70
2022/01/28 05:29:39;;;;;;;0.75;0.40;;;;;;;0.06;100.00;98472.28;1739687;81;21474;-70
2022/01/28 05:32:09;;;;;;;2.53;0.87;;;;;;;0.03;100.00;98476.20;1726345;81;22023;-70
2022/01/28 05:34:37;;;;;;;1.35;0.82;;;;;;;0.02;100.00;98511.72;1725430;83;20889;-70
2022/01/28 05:37:05;;;;;;;1.65;0.40;;;;;;;0.01;100.00;98508.76;1725686;81;21484;-70
2022/01/28 05:39:32;;;;;;;1.75;0.70;;;;;;;-0.04;100.00;98511.87;1727521;81;20905;-70
2022/01/28 05:42:00;;;;;;;0.93;0.40;;;;;;;-0.03;100.00;98534.07;1687737;83;21617;-71
2022/01/28 05:44:27;;;;;;;2.83;0.93;;;;;;;-0.06;100.00;98525.16;1732752;81;21113;-70
2022/01/28 05:47:02;;;;;;;1.80;0.85;;;;;;;-0.05;100.00;98520.45;1751155;81;20961;-70
2022/01/28 05:49:26;;;;;;;2.37;1.00;;;;;;;-0.09;100.00;98545.32;1752177;81;20967;-70
2022/01/28 05:51:53;;;;;;;2.75;0.72;;;;;;;-0.07;100.00;98549.98;1753553;80;21410;-71
2022/01/28 05:54:19;;;;;;;2.75;1.07;;;;;;;-0.07;100.00;98559.41;1761406;80;20900;-70
2022/01/28 05:56:46;;;;;;;2.98;1.15;;;;;;;-0.07;100.00;98574.81;1759026;80;21106;-70
2022/01/28 05:59:13;;;;;;;2.15;0.90;;;;;;;-0.08;100.00;98582.11;1754707;81;20934;-69
2022/01/28 06:01:40;;;;;;;3.40;0.75;;;;;;;-0.07;100.00;98585.08;1755186;81;20885;-70
2022/01/28 06:04:07;;;;;;;4.00;1.15;;;;;;;-0.07;100.00;98586.36;1753797;80;20875;-69
2022/01/28 06:06:33;;;;;;;3.90;1.00;;;;;;;-0.04;100.00;98597.83;1758043;80;20941;-69
2022/01/28 06:09:01;;;;;;;2.85;0.90;;;;;;;0.01;100.00;98602.43;1756050;80;21095;-70
2022/01/28 06:11:28;;;;;;;5.37;1.10;;;;;;;0.08;100.00;98606.53;1758196;80;20930;-70
2022/01/28 06:13:55;;;;;;;3.08;0.98;;;;;;;0.13;100.00;98616.25;1757851;80;20957;-70
2022/01/28 06:16:22;;;;;;;2.80;0.50;;;;;;;0.19;100.00;98627.66;1754072;80;20893;-70
2022/01/28 06:18:48;;;;;;;1.77;0.80;;;;;;;0.15;100.00;98608.09;1755696;81;21501;-70
2022/01/28 06:21:16;;;;;;;4.50;1.12;;;;;;;0.19;100.00;98653.33;1758815;80;21605;-69
2022/01/28 06:23:42;;;;;;;;;;;;;;;0.19;100.00;98663.60;1761071;81;20927;-70
2022/01/28 06:26:11;;;;;;;3.02;0.93;;;;;;;0.19;100.00;98661.03;1755680;80;20163;-69
2022/01/28 06:28:38;;;;;;;4.22;1.17;;;;;;;0.20;100.00;98660.17;1758694;80;20948;-69
2022/01/28 06:31:07;;;;;;;4.08;1.20;;;;;;;0.23;100.00;98678.97;1748152;80;20918;-69
2022/01/28 06:33:33;;;;;;;5.47;1.40;;;;;;;0.23;100.00;98689.23;1728822;81;21323;-70
2022/01/28 06:36:00;;;;;;;2.80;1.00;;;;;;;0.24;100.00;98680.64;1745408;81;20929;-70
2022/01/28 06:38:27;;;;;;;3.33;0.68;;;;;;;0.23;100.00;98700.78;1752623;81;21506;-70
2022/01/28 06:40:54;;;;;;;2.33;0.87;;;;;;;0.24;100.00;98696.05;1754956;81;20925;-69
2022/01/28 06:43:21;;;;;;;3.83;1.05;;;;;;;0.21;100.00;98705.49;1753002;81;20946;-69
2022/01/28 06:45:48;;;;;;;2.72;0.88;;;;;;;0.24;100.00;98721.72;1749378;80;21868;-71
2022/01/28 06:48:19;;;;;;;3.45;1.10;;;;;;;0.19;100.00;98744.47;1749848;81;20947;-71
2022/01/28 06:50:48;;;;;;;3.90;1.05;;;;;;;0.18;100.00;98733.80;1746804;80;21385;-70
2022/01/28 06:53:15;;;;;;;5.03;1.25;;;;;;;0.20;100.00;98752.59;1753747;81;20979;-70
2022/01/28 06:55:43;;;;;;;3.08;0.80;;;;;;;0.20;100.00;98756.45;1745425;81;20910;-71
2022/01/28 06:58:10;;;;;;;4.03;1.22;;;;;;;0.23;100.00;98748.28;1742821;81;21065;-71
2022/01/28 07:00:37;;;;;;;2.15;0.80;;;;;;;0.25;100.00;98752.92;1737547;81;21968;-70
2022/01/28 07:03:06;;;;;;;1.60;0.85;;;;;;;0.27;100.00;98766.58;1747912;81;20946;-71
2022/01/28 07:05:33;;;;;;;3.02;1.30;;;;;;;0.28;100.00;98769.55;1745686;80;20910;-72
2022/01/28 07:08:01;;;;;;;1.75;1.30;;;;;;;0.28;100.00;98790.08;1751379;81;20950;-71
2022/01/28 07:10:27;;;;;;;;;;;;;;;0.29;100.00;98793.08;1745626;81;21485;-71
2022/01/28 07:12:57;;;;;;;3.60;0.90;;;;;;;0.35;100.00;98786.52;1687451;83;20145;-71
2022/01/28 07:15:25;;;;;;;2.50;0.80;;;;;;;0.34;100.00;98808.80;1694243;83;20913;-71
2022/01/28 07:17:53;;;;;;;2.02;0.78;;;;;;;0.31;100.00;98792.58;1711743;83;20931;-71
2022/01/28 07:20:20;;;;;;;1.98;0.75;;;;;;;0.36;100.00;98793.34;1718275;83;21013;-72
2022/01/28 07:22:47;;;;;;;4.22;1.05;;;;;;;0.36;100.00;98819.02;1697782;83;21390;-72
2022/01/28 07:25:14;;;;;;;2.20;0.90;;;;;;;0.34;100.00;98819.52;1748567;80;20973;-72
2022/01/28 07:27:44;;;;;;;1.67;0.80;;;;;;;0.36;100.00;98815.17;1748858;80;20934;-72
2022/01/28 07:30:13;;;;;;;3.98;0.93;;;;;;;0.34;100.00;98842.18;1733221;79;20903;-71
2022/01/28 07:32:42;;;;;;;2.58;0.80;;;;;;;0.32;100.00;98854.64;1782845;79;20930;-72
2022/01/28 07:35:09;;;;;;;4.22;1.27;;;;;;;0.26;100.00;98867.59;1756678;79;22049;-72
2022/01/28 07:37:37;;;;;;;2.17;0.82;;;;;;;0.21;100.00;98867.23;1778656;78;20886;-72
2022/01/28 07:40:05;;;;;;;;;;;;;;;0.24;100.00;98875.77;1788142;79;20958;-72
2022/01/28 07:42:34;;;;;;;2.75;1.00;;;;;;;0.27;100.00;98888.54;1781849;79;20095;-72
2022/01/28 07:45:00;;;;;;;1.32;0.50;;;;;;;0.27;100.00;98897.52;1755952;79;21487;-71
2022/01/28 07:47:27;;;;;;;7.22;1.40;;;;;;;0.29;100.00;98891.93;1783323;79;21881;-72
2022/01/28 07:49:54;;;;;;;1.75;1.50;;;;;;;0.29;100.00;98897.06;1782434;79;20907;-72
2022/01/28 07:52:23;;;;;;;3.60;0.80;;;;;;;0.35;100.00;98913.64;1779570;79;20898;-73
2022/01/28 07:54:50;;;;;;;7.10;1.05;;;;;;;0.36;100.00;98914.03;1781799;79;20934;-72
2022/01/28 07:57:17;;;;;;;2.80;0.98;;;;;;;0.37;100.00;98920.88;1785496;79;20973;-73
2022/01/28 07:59:44;;;;;;;3.25;1.62;;;;;;;0.41;100.00;98925.07;1775865;79;21869;-73
2022/01/28 08:02:11;;;;;;;2.15;1.10;;;;;;;0.37;100.00;98931.16;1783300;79;20886;-72
2022/01/28 08:04:39;;;;;;;2.10;0.95;;;;;;;0.39;100.00;98931.95;1786682;79;21479;-73
2022/01/28 08:07:06;;;;;;;5.62;0.70;;;;;;;0.44;100.00;98959.68;1783724;79;21408;-72
2022/01/28 08:09:33;;;;;;;2.25;0.78;;;;;;;0.45;100.00;98975.52;1783239;79;20947;-73
2022/01/28 08:12:00;;;;;;;2.33;0.90;;;;;;;0.48;100.00;98967.76;1781580;79;21028;-73
2022/01/28 08:14:31;;;;;;;3.62;1.05;;;;;;;0.52;100.00;98971.95;1786690;79;21455;-72
2022/01/28 08:16:58;;;;;;;2.83;1.05;;;;;;;0.51;100.00;98980.54;1783530;79;20870;-72
2022/01/28 08:19:25;;;;;;;3.87;1.10;;;;;;;0.56;100.00;98983.88;1780843;79;20882;-73
2022/01/28 08:21:52;;;;;;;5.53;1.42;;;;;;;0.61;100.00;98987.18;1784861;79;20970;-73
2022/01/28 08:24:19;;;;;;;2.12;0.98;;;;;;;0.69;100.00;98987.48;1788544;79;21054;-73
2022/01/28 08:26:46;;;;;;;1.45;0.82;;;;;;;0.61;100.00;99002.59;1786122;79;21316;-73
2022/01/28 08:29:14;;;;;;;3.10;1.07;;;;;;;0.63;100.00;98998.28;1727302;82;20869;-72
2022/01/28 08:31:41;;;;;;;4.10;1.45;;;;;;;0.65;100.00;99005.53;1733405;81;20871;-72
2022/01/28 08:34:08;;;;;;;2.75;1.10;;;;;;;0.65;100.00;99027.38;1734164;82;26466;-73
2022/01/28 08:36:37;;;;;;;4.28;1.15;;;;;;;0.68;100.00;99018.77;1722081;81;21306;-72
2022/01/28 08:39:05;;;;;;;2.25;1.05;;;;;;;0.72;100.00;99020.39;1737601;81;20947;-72
2022/01/28 08:41:36;;;;;;;4.78;1.30;;;;;;;0.76;99.89;99031.48;1735142;81;20966;-72
2022/01/28 08:44:03;;;;;;;3.35;1.10;;;;;;;0.85;99.69;99033.87;1738643;81;20926;-72
2022/01/28 08:46:30;;;;;;;2.20;1.15;;;;;;;0.86;99.35;99048.40;1737979;81;21499;-72
2022/01/28 08:48:57;;;;;;;5.25;1.10;;;;;;;0.89;99.00;99045.77;1760382;79;22856;-72
2022/01/28 08:51:24;;;;;;;4.30;1.25;;;;;;;0.94;99.27;99064.53;1789322;79;20961;-72
2022/01/28 08:53:50;;;;;;;6.58;1.27;;;;;;;0.91;98.89;99072.30;1787783;79;20914;-72
2022/01/28 08:56:19;;;;;;;3.35;1.30;;;;;;;0.94;99.20;99074.81;1786637;79;20930;-73
2022/01/28 08:58:46;;;;;;;1.32;0.70;;;;;;;0.98;99.00;99082.89;1781682;79;20946;-73
2022/01/28 09:01:13;;;;;;;3.12;0.80;;;;;;;1.01;99.26;99092.23;1783519;79;21093;-73
2022/01/28 09:03:40;;;;;;;1.42;0.80;;;;;;;0.94;99.16;99097.95;1782794;79;21467;-72
2022/01/28 09:06:07;;;;;;;3.00;0.72;;;;;;;0.96;99.11;99100.05;1777334;79;20961;-72
2022/01/28 09:08:33;;;;;;;1.55;0.60;;;;;;;0.93;98.76;99106.55;1783678;79;20855;-73
2022/01/28 09:11:29;;;;;;;1.62;0.60;;;;;;;0.88;98.68;99112.20;1776672;79;20917;-72
2022/01/28 09:13:37;;;;;;;3.80;0.85;;;;;;;0.90;98.64;99146.44;1775450;79;21196;-71
2022/01/28 10:28:04;;;;;;;4.05;1.50;;;;;;;-0.09;100.00;99273.26;1839918;75;22559;-72
2022/01/28 10:30:43;;;;;;;4.05;1.05;;;;;;;-0.11;100.00;99281.40;1814810;77;20942;-72
2022/01/28 10:33:21;;;;;;;2.22;1.10;;;;;;;-0.03;100.00;99283.45;1816163;77;21542;-72
2022/01/28 10:35:53;;;;;;;;;;;;;;;0.09;100.00;99309.00;1782438;78;20974;-72
2022/01/28 10:38:41;;;;;;;5.08;1.42;;;;;;;0.23;100.00;99277.18;1809957;78;20145;-72
2022/01/28 10:41:15;;;;;;;3.52;0.60;;;;;;;0.33;100.00;99287.73;1818992;78;21617;-71
2022/01/28 10:43:52;;;;;;;2.98;0.80;;;;;;;0.43;100.00;99304.73;1809504;77;21005;-71
2022/01/28 10:46:33;;;;;;;;;;;;;;;0.49;100.00;99289.68;1754620;80;21381;-71
2022/01/28 10:49:02;;;;;;;3.67;0.60;;;;;;;0.50;100.00;99312.76;1744945;80;20141;-71
2022/01/28 10:51:47;;;;;;;2.35;1.10;;;;;;;0.40;100.00;99288.08;1761303;79;21102;-72
2022/01/28 10:54:20;;;;;;;1.95;0.65;;;;;;;0.30;100.00;99318.59;1766012;79;21053;-74
2022/01/28 10:56:58;;;;;;;2.37;0.75;;;;;;;0.07;100.00;99333.83;1764492;79;21011;-73
2022/01/28 10:59:34;;;;;;;7.28;0.95;;;;;;;-0.10;100.00;99313.91;1760357;79;21081;-73
2022/01/28 11:02:08;;;;;;;5.08;1.02;;;;;;;-0.21;100.00;99345.25;1742845;80;21076;-74
2022/01/28 11:04:36;;;;;;;6.12;1.07;;;;;;;-0.18;100.00;99350.34;1757987;79;21017;-74
2022/01/28 11:07:04;;;;;;;4.80;1.22;;;;;;;-0.15;100.00;99347.75;1754406;80;20927;-72
2022/01/28 11:09:31;;;;;;;3.50;1.17;;;;;;;-0.13;100.00;99349.88;1754655;80;20971;-72
2022/01/28 11:12:03;;;;;;;3.37;0.98;;;;;;;-0.11;100.00;99367.38;1752946;79;21171;-71
2022/01/28 11:14:30;;;;;;;2.47;1.10;;;;;;;-0.09;100.00;99352.81;1757249;80;21686;-73
2022/01/28 11:16:59;;;;;;;2.57;0.63;;;;;;;-0.06;100.00;99388.72;1755230;81;20942;-72
2022/01/28 11:19:33;;;;;;;4.10;1.22;;;;;;;-0.08;100.00;99363.52;1750924;80;21085;-73
2022/01/28 11:22:26;;;;;;;4.28;1.45;;;;;;;-0.07;100.00;99402.42;1755692;79;21011;-74
2022/01/28 11:25:26;;;;;;;4.83;1.32;;;;;;;-0.07;100.00;99404.98;1752426;80;21938;-74
2022/01/28 11:27:51;;;;;;;3.25;1.10;;;;;;;-0.05;100.00;99388.72;1753416;80;21033;-73
2022/01/28 11:30:25;;;;;;;3.12;1.27;;;;;;;-0.07;100.00;99411.41;1749794;79;21656;-73
2022/01/28 11:33:01;;;;;;;2.02;0.90;;;;;;;-0.09;100.00;99422.11;1752230;81;21031;-72
2022/01/28 11:35:53;;;;;;;7.08;1.00;;;;;;;-0.12;100.00;99418.29;1736312;80;21596;-74
2022/01/28 11:38:40;;;;;;;1.92;1.00;;;;;;;-0.13;100.00;99417.88;1749451;79;21090;-74
2022/01/28 11:41:11;;;;;;;4.25;1.12;;;;;;;-0.14;100.00;99440.54;1746769;79;21178;-73
2022/01/28 11:43:51;;;;;;;2.25;1.02;;;;;;;-0.16;100.00;99440.56;1752082;81;21068;-73
2022/01/28 11:46:30;;;;;;;2.20;0.53;;;;;;;-0.14;100.00;99440.54;1750552;80;21543;-72
2022/01/28 11:49:18;;;;;;;2.50;0.90;;;;;;;-0.18;100.00;99450.42;1715803;82;21089;-72
2022/01/28 11:51:45;;;;;;;4.30;1.02;;;;;;;-0.16;100.00;99450.83;1678627;84;22781;-73
2022/01/28 11:54:16;;;;;;;5.20;1.07;;;;;;;-0.17;99.96;99466.23;1669825;84;21110;-72
2022/01/28 11:57:11;;;;;;;3.08;0.65;;;;;;;-0.16;100.00;99476.94;1695516;83;21002;-72
2022/01/28 11:59:38;;;;;;;5.58;1.45;;;;;;;-0.25;98.77;99463.31;1684705;83;21028;-71
2022/01/28 12:02:10;;;;;;;3.23;0.90;;;;;;;-0.15;98.92;99479.91;1686761;83;21087;-71
2022/01/28 12:04:39;;;;;;;8.53;2.02;;;;;;;-0.14;98.49;99488.02;1692164;83;21273;-72
2022/01/28 12:07:19;;;;;;;9.13;2.95;;;;;;;-0.10;98.21;99476.88;1695516;83;20995;-72
2022/01/28 12:09:52;;;;;;;6.10;2.08;;;;;;;-0.10;97.82;99487.14;1666889;83;21049;-75
2022/01/28 12:12:49;;;;;;;5.97;1.75;;;;;;;-0.06;98.27;99483.67;1683261;83;22052;-71
2022/01/28 12:15:18;;;;;;;3.50;1.55;;;;;;;-0.07;98.23;99494.81;1687610;83;21185;-74
2022/01/28 12:18:06;;;;;;;7.55;1.65;;;;;;;-0.06;96.72;99509.34;1696109;83;21150;-74
2022/01/28 12:20:46;;;;;;;4.50;1.40;;;;;;;0.00;96.26;99518.30;1645373;85;20977;-74
2022/01/28 12:23:25;;;;;;;5.95;1.35;;;;;;;0.09;94.99;99507.95;1646342;85;21135;-72
2022/01/28 12:25:57;;;;;;;9.43;2.08;;;;;;;0.15;95.16;99508.34;1656013;86;21136;-72
2022/01/28 12:28:32;;;;;;;2.50;1.25;;;;;;;0.17;94.74;99512.59;1656862;85;21106;-72
2022/01/28 12:31:21;;;;;;;4.42;1.62;;;;;;;0.17;94.37;99522.86;1656323;86;21193;-72
2022/01/28 12:33:53;;;;;;;4.80;1.27;;;;;;;0.18;94.57;99511.72;1655836;85;21495;-70
2022/01/28 12:36:24;;;;;;;4.80;1.42;;;;;;;0.13;91.92;99525.02;1657362;85;21546;-71
2022/01/28 12:39:03;;;;;;;5.42;1.30;;;;;;;0.19;93.80;99527.53;1656516;85;21580;-69
2022/01/28 12:41:25;;;;;;;6.20;1.52;;;;;;;0.23;94.63;99535.23;1654440;85;21603;-71
2022/01/28 12:43:55;;;;;;;;;;;;;;;0.21;92.78;99557.91;1658989;86;21283;-70
2022/01/28 12:46:27;;;;;;;4.90;1.32;;;;;;;0.29;93.56;99557.02;1655327;85;20375;-72
2022/01/28 12:48:55;;;;;;;8.28;1.15;;;;;;;0.32;93.77;99559.55;1653767;85;21666;-72
2022/01/28 12:51:23;;;;;;;2.85;1.27;;;;;;;0.33;92.79;99563.81;1656756;85;21627;-70
2022/01/28 12:53:55;;;;;;;7.15;1.70;;;;;;;0.34;92.17;99566.81;1656363;85;21349;-71
2022/01/28 12:56:43;;;;;;;4.78;1.57;;;;;;;0.37;92.03;99578.34;1654962;85;21110;-70
2022/01/28 12:59:13;;;;;;;3.12;1.20;;;;;;;0.38;92.58;99575.75;1655160;85;21599;-71
2022/01/28 13:01:40;;;;;;;4.25;1.32;;;;;;;0.37;91.02;99607.45;1655871;85;20982;-71
2022/01/28 13:04:13;;;;;;;2.73;1.00;;;;;;;0.31;87.75;99592.50;1656675;86;21054;-71
2022/01/28 13:09:24;;;;;;;3.62;1.12;;;;;;;0.37;88.46;99612.58;1657123;85;21087;-71
2022/01/28 13:12:00;;;;;;;8.20;1.50;;;;;;;0.39;88.62;99621.14;1654407;85;21029;-71
2022/01/28 13:14:32;;;;;;;4.78;1.25;;;;;;;0.42;89.03;99631.39;1656577;85;21548;-71
2022/01/28 13:17:06;;;;;;;5.12;1.30;;;;;;;0.44;90.18;99635.21;1655919;85;20928;-70
2022/01/28 13:19:57;;;;;;;5.72;1.10;;;;;;;0.43;88.39;99635.65;1656621;86;21559;-70
2022/01/28 13:22:27;;;;;;;4.67;1.25;;;;;;;0.43;87.76;99639.94;1630936;86;21219;-70
2022/01/28 13:24:56;;;;;;;5.35;1.67;;;;;;;0.44;88.47;99650.63;1631185;86;22408;-70
2022/01/28 13:27:48;;;;;;;5.25;1.20;;;;;;;0.46;89.96;99656.61;1615247;87;21098;-71
2022/01/28 13:30:16;;;;;;;7.47;1.82;;;;;;;0.42;89.21;99657.48;1630687;86;21717;-70
2022/01/28 13:32:46;;;;;;;6.03;1.55;;;;;;;0.42;88.96;99658.77;1630804;86;21077;-71
2022/01/28 13:35:42;;;;;;;4.30;1.70;;;;;;;0.44;89.59;99666.03;1629773;86;21081;-70
2022/01/28 13:38:19;;;;;;;5.58;1.42;;;;;;;0.41;89.09;99669.91;1638459;85;21066;-71
2022/01/28 13:40:46;;;;;;;8.08;2.22;;;;;;;0.41;88.11;99669.91;1635951;86;21664;-72
2022/01/28 13:43:19;;;;;;;4.67;1.82;;;;;;;0.44;89.55;99677.59;1634295;86;21744;-71
2022/01/28 13:46:00;;;;;;;4.25;1.00;;;;;;;0.38;87.31;99698.19;1630242;86;20978;-71
2022/01/28 13:48:38;;;;;;;4.10;1.12;;;;;;;0.42;88.43;99687.02;1656833;84;21068;-71
2022/01/28 13:51:12;;;;;;;4.75;1.90;;;;;;;0.38;86.98;99700.77;1623355;86;21036;-71
2022/01/28 13:56:43;;;;;;;2.08;0.88;;;;;;;0.36;87.08;99712.75;1620234;86;21064;-71
2022/01/28 13:59:14;;;;;;;5.37;0.88;;;;;;;0.39;87.45;99717.87;1622844;86;21172;-72
2022/01/28 14:01:48;;;;;;;5.08;1.25;;;;;;;0.36;86.95;99723.02;1624068;86;21099;-72
2022/01/28 14:04:23;;;;;;;2.83;0.90;;;;;;;0.32;86.54;99731.63;1625800;85;21105;-72
2022/01/28 14:07:11;;;;;;;5.08;1.00;;;;;;;0.30;87.28;99723.06;1636155;85;21072;-72
2022/01/28 14:10:01;;;;;;;5.20;1.55;;;;;;;0.28;87.71;99732.48;1633677;86;21045;-72
2022/01/28 14:15:13;;;;;;;2.90;0.95;;;;;;;0.21;87.98;99740.66;1633274;86;21219;-71
2022/01/28 14:17:39;;;;;;;4.12;1.07;;;;;;;0.21;87.33;99744.52;1656196;84;20944;-71
2022/01/28 14:20:08;;;;;;;5.42;1.57;;;;;;;0.23;87.93;99738.10;1658121;84;25016;-71
2022/01/28 14:22:35;;;;;;;5.25;1.37;;;;;;;0.22;87.75;99756.48;1621401;87;20976;-71
2022/01/28 14:25:03;;;;;;;6.33;1.27;;;;;;;0.18;87.94;99760.78;1623268;86;22255;-71
2022/01/28 14:30:17;;;;;;;6.22;1.80;;;;;;;0.07;88.50;99806.19;1620675;85;21171;-71
2022/01/28 14:32:32;;;;;;;7.50;1.90;;;;;;;0.03;88.63;99782.69;1622697;85;21032;-71
2022/01/28 14:34:58;;;;;;;3.80;1.30;;;;;;;0.07;88.67;99780.52;1622754;86;21813;-70
2022/01/28 14:37:37;;;;;;;3.90;1.30;;;;;;;0.07;88.40;99789.50;1615531;86;21077;-70
2022/01/28 14:39:58;;;;;;;3.72;1.12;;;;;;;0.11;88.73;99801.89;1632127;85;21123;-71
2022/01/28 14:42:24;;;;;;;6.05;1.85;;;;;;;0.10;88.76;99799.76;1622872;86;21077;-70
2022/01/28 14:44:51;;;;;;;3.58;1.35;;;;;;;0.10;89.08;99803.61;1644475;85;21047;-71
2022/01/28 14:47:18;;;;;;;10.28;2.25;;;;;;;0.07;88.90;99826.73;1643485;85;21129;-71
2022/01/28 14:49:47;;;;;;;6.03;2.10;;;;;;;0.04;89.17;99828.46;1621686;86;21083;-70
2022/01/28 14:52:19;;;;;;;7.03;1.90;;;;;;;0.02;89.61;99823.31;1645217;85;21905;-71
2022/01/28 14:54:44;;;;;;;6.08;2.27;;;;;;;0.03;89.76;99834.44;1647693;85;21056;-71
2022/01/28 14:57:12;;;;;;;7.10;1.37;;;;;;;0.03;89.84;99828.89;1642471;86;21038;-71